Погода Ла-Монкадана 2 недели

Гуанахуато, Мексика

01 - 14 марта
  • 01марта
    Сегодня
    +10°
    +30°
    Практически безоблачно
    ВремяПогодаТемператураВлажностьДавлениеВетер, м/сВероятность осадков
    00:00Облачно с прояснениями+18°C48 %622 мм1.2 м/с2 %
    03:00Облачно с прояснениями+15°C63 %621 мм1.0 м/с2 %
    06:00Облачно с прояснениями+12°C70 %620 мм1.0 м/с2 %
    09:00Небольшая облачность+17°C47 %623 мм1.3 м/с2 %
    12:00Небольшая облачность+25°C20 %625 мм2.6 м/с2 %
    15:00Практически безоблачно+30°C13 %624 мм3.4 м/с2 %
    18:00Облачно с прояснениями+27°C23 %623 мм4.9 м/с2 %
    21:00Облачно с прояснениями+21°C35 %623 мм2.0 м/с2 %
  • 02марта
    Суббота
    +10°
    +31°
    Ясно и безоблачно
    ВремяПогодаТемператураВлажностьДавлениеВетер, м/сВероятность осадков
    00:00Облачно с прояснениями+17°C43 %622 мм1.1 м/с2 %
    03:00Ясно и безоблачно+15°C52 %621 мм0.4 м/с2 %
    06:00Практически безоблачно+11°C62 %620 мм0.8 м/с2 %
    09:00Ясно и безоблачно+17°C42 %623 мм0.5 м/с2 %
    12:00Ясно и безоблачно+25°C25 %625 мм1.7 м/с2 %
    15:00Ясно и безоблачно+30°C15 %623 мм3.3 м/с2 %
    18:00Небольшая облачность+28°C16 %622 мм4.6 м/с2 %
    21:00Ясно и безоблачно+21°C30 %622 мм2.6 м/с2 %
  • 03марта
    Воскресенье
    +9°
    +30°
    Ясно и безоблачно
    ВремяПогодаТемператураВлажностьДавлениеВетер, м/сВероятность осадков
    00:00Облачно с прояснениями+17°C41 %622 мм1.5 м/с2 %
    03:00Ясно и безоблачно+13°C55 %620 мм0.6 м/с2 %
    06:00Ясно и безоблачно+11°C60 %619 мм0.8 м/с2 %
    09:00Ясно и безоблачно+17°C40 %623 мм0.6 м/с2 %
    12:00Ясно и безоблачно+25°C19 %624 мм2.6 м/с2 %
    15:00Ясно и безоблачно+29°C16 %623 мм3.1 м/с2 %
    18:00Ясно и безоблачно+28°C21 %621 мм4.4 м/с2 %
    21:00Ясно и безоблачно+21°C34 %622 мм2.0 м/с2 %
  • 04марта
    Понедельник
    +10°
    +31°
    Ясно и безоблачно
    ВремяПогодаТемператураВлажностьДавлениеВетер, м/сВероятность осадков
    00:00Ясно и безоблачно+17°C42 %621 мм1.4 м/с2 %
    03:00Ясно и безоблачно+13°C55 %619 мм0.7 м/с2 %
    06:00Ясно и безоблачно+11°C59 %619 мм0.9 м/с2 %
    09:00Ясно и безоблачно+17°C35 %622 мм0.6 м/с2 %
    12:00Ясно и безоблачно+25°C21 %623 мм2.1 м/с2 %
    15:00Ясно и безоблачно+30°C11 %622 мм4.1 м/с2 %
    18:00Ясно и безоблачно+27°C16 %621 мм4.5 м/с2 %
    21:00Ясно и безоблачно+21°C24 %621 мм2.0 м/с2 %
  • 05марта
    Вторник
    +11°
    +31°
    Практически безоблачно
    ВремяПогодаТемператураВлажностьДавлениеВетер, м/сВероятность осадков
    00:00Ясно и безоблачно+16°C32 %620 мм1.4 м/с2 %
    03:00Практически безоблачно+13°C42 %618 мм0.6 м/с2 %
    06:00Ясно и безоблачно+11°C46 %618 мм1.1 м/с2 %
    09:00Ясно и безоблачно+17°C32 %621 мм0.7 м/с2 %
    12:00Ясно и безоблачно+25°C17 %623 мм1.7 м/с2 %
    15:00Практически безоблачно+30°C9 %621 мм3.5 м/с2 %
    18:00Ясно и безоблачно+29°C9 %620 мм3.3 м/с2 %
    21:00Небольшая облачность+21°C22 %620 мм2.1 м/с2 %
Мы используем cookies
Соглашаюсь